Time;durP1;ratioP1;P1;durP2;ratioP2;P2;SDS_P1;SDS_P2;PMS_P1;PMS_P2;Temp;Humidity;BMP_temperature;BMP_pressure;BME280_temperature;BME280_humidity;BME280_pressure;Samples;Min_cycle;Max_cycle;Signal;HPM_P1;HPM_P2
2022/07/05 00:02:04;;;;;;;10.27;7.97;;;16.30;99.90;;;;;;5070051;28;20162;-67
2022/07/05 00:04:30;;;;;;;7.97;7.17;;;16.20;99.90;;;;;;5051568;28;20632;-67
2022/07/05 00:09:39;;;;;;;7.97;7.23;;;16.10;99.90;;;;;;5031785;28;20206;-67
2022/07/05 00:12:05;;;;;;;9.03;7.13;;;16.00;99.90;;;;;;5033019;28;20167;-67
2022/07/05 00:14:31;;;;;;;8.40;7.70;;;16.00;99.90;;;;;;5071356;28;20459;-67
2022/07/05 00:16:57;;;;;;;8.33;7.73;;;16.00;99.90;;;;;;5071485;28;20624;-68
2022/07/05 00:19:22;;;;;;;9.23;7.30;;;16.00;99.90;;;;;;5052856;28;20278;-68
2022/07/05 00:21:48;;;;;;;7.60;7.00;;;16.00;99.90;;;;;;5051674;28;20175;-68
2022/07/05 00:24:13;;;;;;;7.30;6.80;;;16.00;99.90;;;;;;5067903;28;20540;-68
2022/07/05 00:26:39;;;;;;;8.03;7.33;;;16.00;99.90;;;;;;5058846;28;20183;-68
2022/07/05 00:29:05;;;;;;;8.30;7.47;;;15.90;99.90;;;;;;5033503;28;20210;-67
2022/07/05 00:31:30;;;;;;;6.87;6.37;;;15.90;99.90;;;;;;5061933;28;20188;-67
2022/07/05 00:33:56;;;;;;;7.60;7.00;;;15.80;99.90;;;;;;5071181;28;20512;-69
2022/07/05 00:36:21;;;;;;;7.63;7.03;;;15.90;99.90;;;;;;5044493;28;20202;-67
2022/07/05 00:38:47;;;;;;;7.93;7.30;;;15.80;99.90;;;;;;5033449;28;20605;-67
2022/07/05 00:41:13;;;;;;;8.17;6.83;;;15.80;99.90;;;;;;5061851;28;20171;-67
2022/07/05 00:43:52;;;;;;;7.33;6.73;;;15.80;99.90;;;;;;5071004;28;20173;-67
2022/07/05 00:46:18;;;;;;;8.10;7.40;;;15.80;99.90;;;;;;5060546;28;20413;-68
2022/07/05 00:48:43;;;;;;;6.87;6.37;;;15.80;99.90;;;;;;5052618;28;20197;-68
2022/07/05 00:51:10;;;;;;;11.10;6.23;;;15.80;99.90;;;;;;5064155;28;20178;-68
2022/07/05 00:53:36;;;;;;;6.80;6.30;;;15.80;99.90;;;;;;5071356;28;20178;-68
2022/07/05 00:56:01;;;;;;;7.00;6.47;;;15.80;99.90;;;;;;5055229;28;20174;-68
2022/07/05 00:58:28;;;;;;;7.87;7.27;;;15.80;99.90;;;;;;5056730;28;20741;-68
2022/07/05 01:00:54;;;;;;;8.80;7.63;;;15.80;99.90;;;;;;5075242;28;20527;-68
2022/07/05 01:03:19;;;;;;;7.57;6.97;;;15.80;99.90;;;;;;5074884;28;20170;-68
2022/07/05 01:05:45;;;;;;;8.00;7.33;;;15.70;99.90;;;;;;5054898;28;20178;-68
2022/07/05 01:08:13;;;;;;;7.77;7.23;;;15.80;99.90;;;;;;5055073;28;20193;-69
2022/07/05 01:10:40;;;;;;;7.57;6.87;;;15.70;99.90;;;;;;5055404;28;20480;-68
2022/07/05 01:13:06;;;;;;;7.53;6.93;;;15.70;99.90;;;;;;5063094;28;20648;-68
2022/07/05 01:15:32;;;;;;;7.83;7.23;;;15.60;99.90;;;;;;5054678;28;20194;-68
2022/07/05 01:17:58;;;;;;;6.77;6.27;;;15.60;99.90;;;;;;5064617;28;20208;-68
2022/07/05 01:20:24;;;;;;;7.63;7.00;;;15.60;99.90;;;;;;5074980;28;20159;-68
2022/07/05 01:22:59;;;;;;;7.63;6.93;;;15.50;99.90;;;;;;5060998;28;20192;-68
2022/07/05 01:25:26;;;;;;;7.90;6.97;;;15.50;99.90;;;;;;5054563;28;20671;-68
2022/07/05 01:27:53;;;;;;;7.17;6.67;;;15.40;99.90;;;;;;5067355;28;20324;-68
2022/07/05 01:30:20;;;;;;;7.43;6.73;;;15.30;99.90;;;;;;5074790;28;20177;-68
2022/07/05 01:32:46;;;;;;;7.40;6.87;;;15.30;99.90;;;;;;5044812;28;20648;-68
2022/07/05 01:35:13;;;;;;;7.80;7.10;;;15.30;99.90;;;;;;5054375;28;20261;-68
2022/07/05 01:37:39;;;;;;;10.37;6.83;;;15.30;99.90;;;;;;5063934;28;20202;-68
2022/07/05 01:40:05;;;;;;;6.77;6.27;;;15.30;99.90;;;;;;5074271;28;20232;-68
2022/07/05 01:42:31;;;;;;;7.33;6.63;;;15.20;99.90;;;;;;5048166;28;20537;-68
2022/07/05 01:44:57;;;;;;;7.47;6.87;;;15.20;99.90;;;;;;5054111;28;20244;-68
2022/07/05 01:47:23;;;;;;;7.77;7.20;;;15.20;99.90;;;;;;5055559;28;20588;-68
2022/07/05 01:49:53;;;;;;;7.73;7.03;;;15.20;99.90;;;;;;5054303;28;20179;-68
2022/07/05 01:52:21;;;;;;;8.13;7.27;;;15.20;99.90;;;;;;5059183;28;20212;-68
2022/07/05 01:54:47;;;;;;;8.70;7.93;;;15.10;99.90;;;;;;5055806;28;20224;-68
2022/07/05 01:57:14;;;;;;;11.37;7.60;;;15.10;99.90;;;;;;5070349;28;20596;-68
2022/07/05 01:59:39;;;;;;;7.77;7.07;;;15.10;99.90;;;;;;5054135;28;20686;-68
2022/07/05 02:02:07;;;;;;;9.43;7.60;;;15.20;99.90;;;;;;5055246;28;20194;-68
2022/07/05 02:04:36;;;;;;;8.27;7.47;;;15.20;99.90;;;;;;5053827;28;20171;-68
2022/07/05 02:07:06;;;;;;;9.37;7.30;;;15.30;99.90;;;;;;5054659;28;20698;-68
2022/07/05 02:09:32;;;;;;;7.67;7.07;;;15.50;99.90;;;;;;5073955;28;20583;-68
2022/07/05 02:11:58;;;;;;;8.00;7.30;;;15.60;99.90;;;;;;5073905;28;20308;-67
2022/07/05 02:14:23;;;;;;;7.57;6.97;;;15.80;99.90;;;;;;5036086;28;20178;-68
2022/07/05 02:16:49;;;;;;;8.10;7.47;;;15.90;99.90;;;;;;5068682;28;20198;-68
2022/07/05 02:19:15;;;;;;;7.10;6.60;;;16.00;99.90;;;;;;5073760;28;20194;-67
2022/07/05 02:21:40;;;;;;;7.97;6.60;;;16.00;99.90;;;;;;5059965;28;20175;-68
2022/07/05 02:24:07;;;;;;;7.90;7.20;;;16.10;99.90;;;;;;5053489;28;20182;-67
2022/07/05 02:26:33;;;;;;;8.37;7.50;;;16.10;99.90;;;;;;5047412;28;20547;-68
2022/07/05 02:29:00;;;;;;;7.53;6.80;;;16.00;99.90;;;;;;5055458;28;20210;-68
2022/07/05 02:31:25;;;;;;;7.67;6.97;;;16.00;99.90;;;;;;5067117;28;20638;-67
2022/07/05 02:33:52;;;;;;;8.10;7.50;;;15.90;99.90;;;;;;5053447;28;20208;-68
2022/07/05 02:36:18;;;;;;;8.13;7.43;;;15.90;99.90;;;;;;5035739;28;20191;-68
2022/07/05 02:38:43;;;;;;;8.83;7.90;;;15.80;99.90;;;;;;5053307;28;20229;-68
2022/07/05 02:41:10;;;;;;;9.43;8.43;;;15.70;99.90;;;;;;5035878;28;20178;-68
2022/07/05 02:43:38;;;;;;;8.70;7.80;;;15.70;99.90;;;;;;5053046;28;20209;-68
2022/07/05 02:46:04;;;;;;;8.30;7.60;;;15.70;99.90;;;;;;5057750;28;20293;-68
2022/07/05 02:48:32;;;;;;;8.63;8.03;;;15.70;99.90;;;;;;5073508;28;20208;-67
2022/07/05 02:50:58;;;;;;;9.03;8.20;;;15.80;99.90;;;;;;5069672;28;20178;-67
2022/07/05 02:53:24;;;;;;;8.53;7.80;;;15.80;99.90;;;;;;5053062;28;20163;-67
2022/07/05 02:55:50;;;;;;;9.13;8.30;;;15.70;99.90;;;;;;5054205;28;20579;-67
2022/07/05 02:58:19;;;;;;;8.30;7.60;;;15.70;99.90;;;;;;5073067;28;20205;-67
2022/07/05 03:00:47;;;;;;;9.13;8.23;;;15.60;99.90;;;;;;5072686;28;20580;-67
2022/07/05 03:03:13;;;;;;;9.77;7.87;;;15.60;99.90;;;;;;5015266;28;20175;-67
2022/07/05 03:05:38;;;;;;;9.00;8.10;;;15.60;99.90;;;;;;5032619;28;20168;-67
2022/07/05 03:08:05;;;;;;;7.93;7.30;;;15.60;99.90;;;;;;5070043;28;20209;-68
2022/07/05 03:10:30;;;;;;;8.70;7.90;;;15.60;99.90;;;;;;5070166;28;20182;-68
2022/07/05 03:12:59;;;;;;;8.87;8.07;;;15.60;99.90;;;;;;5052783;28;20189;-69
2022/07/05 03:15:25;;;;;;;9.43;8.47;;;15.50;99.90;;;;;;5035684;28;20187;-68
2022/07/05 03:17:51;;;;;;;8.20;7.47;;;15.50;99.90;;;;;;5052461;28;20557;-68
2022/07/05 03:20:17;;;;;;;8.63;7.77;;;15.40;99.90;;;;;;5066167;28;20243;-69
2022/07/05 03:22:42;;;;;;;8.47;7.87;;;15.40;99.90;;;;;;5072493;28;20655;-69
2022/07/05 03:25:08;;;;;;;9.40;8.37;;;15.30;99.90;;;;;;5060081;28;20247;-69
2022/07/05 03:27:34;;;;;;;9.20;8.27;;;15.30;99.90;;;;;;5034401;28;20213;-69
2022/07/05 03:30:00;;;;;;;9.03;8.23;;;15.30;99.90;;;;;;5062742;28;20261;-68
2022/07/05 03:32:25;;;;;;;9.40;8.40;;;15.20;99.90;;;;;;5072525;28;20174;-69
2022/07/05 03:34:51;;;;;;;9.10;8.00;;;15.20;99.90;;;;;;5045309;28;20182;-68
2022/07/05 03:37:17;;;;;;;8.90;8.20;;;15.20;99.90;;;;;;5052309;28;20209;-69
2022/07/05 03:39:42;;;;;;;8.63;7.83;;;15.20;99.90;;;;;;5058761;28;20528;-69
2022/07/05 03:42:08;;;;;;;11.53;9.10;;;15.20;99.90;;;;;;5067537;28;20711;-69
2022/07/05 03:44:33;;;;;;;9.40;8.70;;;15.30;99.90;;;;;;5052076;28;20170;-69
2022/07/05 03:46:59;;;;;;;9.37;8.57;;;15.20;99.90;;;;;;5054799;28;20174;-69
2022/07/05 03:49:26;;;;;;;9.60;8.80;;;15.20;99.90;;;;;;5072155;28;20201;-69
2022/07/05 03:51:52;;;;;;;8.30;7.70;;;15.20;99.90;;;;;;5052485;28;20234;-69
2022/07/05 03:54:17;;;;;;;8.83;8.00;;;15.20;99.90;;;;;;5033985;28;20265;-69
2022/07/05 03:56:43;;;;;;;9.67;8.07;;;15.30;99.90;;;;;;5034040;28;20195;-70
2022/07/05 03:59:09;;;;;;;8.67;7.90;;;15.40;99.90;;;;;;5053284;28;20679;-70
2022/07/05 04:01:34;;;;;;;9.27;8.40;;;15.40;99.90;;;;;;5071833;28;20167;-69
2022/07/05 04:04:00;;;;;;;10.90;8.20;;;15.40;99.90;;;;;;5053537;28;20309;-69
2022/07/05 04:06:26;;;;;;;12.63;8.20;;;15.40;99.90;;;;;;5051881;28;20262;-69
2022/07/05 04:08:51;;;;;;;9.60;8.30;;;15.30;99.90;;;;;;5067460;28;20686;-69
2022/07/05 04:11:17;;;;;;;13.00;8.20;;;15.30;99.90;;;;;;5058022;28;20175;-70
2022/07/05 04:13:43;;;;;;;8.80;8.00;;;15.40;99.90;;;;;;5051483;28;20182;-70
2022/07/05 04:16:09;;;;;;;8.80;8.10;;;15.40;99.90;;;;;;5063325;28;20259;-69
2022/07/05 04:18:35;;;;;;;8.67;7.93;;;15.40;99.90;;;;;;5071671;28;20193;-70
2022/07/05 04:21:02;;;;;;;8.77;7.87;;;15.40;99.90;;;;;;5061000;28;20187;-69
2022/07/05 04:23:28;;;;;;;9.30;8.00;;;15.40;99.90;;;;;;5050535;28;20241;-70
2022/07/05 04:25:54;;;;;;;9.07;8.27;;;15.40;99.90;;;;;;5052514;28;20266;-69
2022/07/05 04:28:20;;;;;;;9.80;8.23;;;15.40;99.90;;;;;;5074132;23;20226;-65
2022/07/05 04:30:46;;;;;;;9.67;8.77;;;15.40;99.90;;;;;;5051370;28;20521;-65
2022/07/05 04:33:12;;;;;;;8.13;7.47;;;15.50;99.90;;;;;;5033643;28;20201;-65
2022/07/05 04:35:37;;;;;;;8.47;7.83;;;15.60;99.90;;;;;;5050909;28;20174;-65
2022/07/05 04:38:03;;;;;;;8.93;8.07;;;15.80;99.90;;;;;;5047856;28;20214;-65
2022/07/05 04:40:29;;;;;;;7.40;6.73;;;15.90;99.90;;;;;;5031711;28;20172;-65
2022/07/05 04:42:55;;;;;;;8.27;7.57;;;16.10;99.90;;;;;;5032552;28;20172;-67
2022/07/05 04:45:20;;;;;;;8.00;7.40;;;16.40;99.90;;;;;;5051278;28;20167;-66
2022/07/05 04:47:46;;;;;;;7.57;6.87;;;16.60;99.90;;;;;;5051042;28;20182;-65
2022/07/05 04:50:12;;;;;;;7.23;6.53;;;16.90;99.90;;;;;;5032203;28;20198;-66
2022/07/05 04:52:37;;;;;;;7.23;6.63;;;17.20;99.90;;;;;;5032083;28;20163;-67
2022/07/05 04:55:03;;;;;;;7.57;6.80;;;17.50;99.90;;;;;;5049535;28;20317;-66
2022/07/05 04:57:40;;;;;;;9.97;9.23;;;17.90;99.90;;;;;;5051896;28;20340;-66
2022/07/05 05:00:10;;;;;;;7.17;6.57;;;18.40;99.90;;;;;;5033884;28;20179;-66
2022/07/05 05:02:36;;;;;;;8.47;7.03;;;18.80;99.90;;;;;;5031287;28;20179;-65
2022/07/05 05:05:02;;;;;;;6.93;6.40;;;19.10;99.90;;;;;;5031119;28;20770;-65
2022/07/05 05:07:29;;;;;;;6.23;5.70;;;19.30;99.90;;;;;;5031312;28;20266;-65
2022/07/05 05:09:54;;;;;;;6.30;5.63;;;19.50;99.90;;;;;;5028318;28;20178;-65
2022/07/05 05:12:20;;;;;;;6.67;6.20;;;19.70;99.90;;;;;;5051302;28;20827;-65
2022/07/05 05:14:45;;;;;;;7.50;5.77;;;19.80;99.90;;;;;;5036935;28;20214;-66
2022/07/05 05:17:11;;;;;;;6.23;5.67;;;20.00;99.90;;;;;;5031184;28;20554;-65
2022/07/05 05:19:37;;;;;;;6.13;5.63;;;20.20;99.90;;;;;;5042578;28;20206;-65
2022/07/05 05:22:02;;;;;;;6.65;5.57;;;20.70;99.90;;;;;;5033219;28;20190;-65
2022/07/05 05:24:28;;;;;;;5.40;4.90;;;20.80;99.90;;;;;;5040516;28;20175;-65
2022/07/05 05:26:54;;;;;;;8.10;5.18;;;20.90;99.90;;;;;;5031097;28;20186;-66
2022/07/05 05:29:20;;;;;;;5.07;4.75;;;21.10;99.90;;;;;;5039060;28;20284;-65
2022/07/05 05:31:46;;;;;;;5.85;5.13;;;21.30;99.90;;;;;;5026676;28;20592;-66
2022/07/05 05:34:12;;;;;;;5.72;5.00;;;21.40;99.90;;;;;;5031217;28;20203;-66
2022/07/05 05:36:38;;;;;;;5.55;5.13;;;21.50;99.90;;;;;;5038954;28;20663;-65
2022/07/05 05:39:04;;;;;;;5.15;4.75;;;21.70;99.90;;;;;;5054460;28;20195;-65
2022/07/05 05:41:29;;;;;;;4.50;4.20;;;21.90;99.90;;;;;;5052024;28;20200;-65
2022/07/05 05:43:55;;;;;;;5.32;4.65;;;22.10;99.90;;;;;;5033765;28;20179;-66
2022/07/05 05:46:20;;;;;;;4.35;3.95;;;22.00;99.90;;;;;;5050240;28;20552;-66
2022/07/05 05:48:46;;;;;;;4.10;3.85;;;21.90;99.90;;;;;;5043534;28;20244;-65
2022/07/05 05:51:12;;;;;;;4.10;3.80;;;22.10;99.90;;;;;;5016718;28;20552;-65
2022/07/05 05:53:38;;;;;;;4.47;4.18;;;22.40;99.90;;;;;;5042738;28;20194;-65
2022/07/05 05:56:04;;;;;;;6.60;3.90;;;22.70;99.90;;;;;;5054229;28;20175;-65
2022/07/05 05:58:29;;;;;;;5.50;4.32;;;23.10;99.90;;;;;;5045187;28;20719;-66
2022/07/05 06:00:55;;;;;;;4.55;4.13;;;23.40;99.90;;;;;;5049601;28;20516;-66
2022/07/05 06:03:22;;;;;;;4.57;4.18;;;23.50;99.90;;;;;;5053237;28;20183;-65
2022/07/05 06:05:48;;;;;;;4.70;4.30;;;23.60;99.90;;;;;;5053616;28;20254;-66
2022/07/05 06:08:14;;;;;;;5.72;3.90;;;23.80;99.90;;;;;;5049905;28;20286;-66
2022/07/05 06:10:40;;;;;;;4.30;4.00;;;23.90;99.90;;;;;;5034014;28;20183;-65
2022/07/05 06:13:08;;;;;;;4.05;3.75;;;24.00;99.90;;;;;;5035870;28;20171;-65
2022/07/05 06:15:35;;;;;;;7.05;3.88;;;24.10;99.90;;;;;;5053878;28;20170;-65
2022/07/05 06:18:01;;;;;;;4.35;3.92;;;24.00;99.90;;;;;;5052217;28;20297;-65
2022/07/05 06:20:31;;;;;;;4.40;4.10;;;24.30;99.90;;;;;;5034206;28;20298;-66
2022/07/05 06:22:59;;;;;;;4.30;3.90;;;24.40;99.90;;;;;;5033659;28;20183;-65
2022/07/05 06:25:25;;;;;;;4.05;3.65;;;24.50;99.90;;;;;;5013849;28;20168;-65
2022/07/05 06:27:54;;;;;;;4.60;4.20;;;24.70;99.90;;;;;;5048194;28;20210;-65
2022/07/05 06:30:21;;;;;;;4.85;4.10;;;24.60;99.90;;;;;;5053687;28;20178;-65
2022/07/05 06:32:48;;;;;;;4.30;3.95;;;24.60;99.90;;;;;;5040563;28;20318;-66
2022/07/05 06:35:14;;;;;;;6.93;4.03;;;24.40;99.90;;;;;;5013510;28;20679;-66
2022/07/05 06:37:45;;;;;;;5.40;4.63;;;24.20;99.90;;;;;;5013467;28;20298;-66
2022/07/05 06:40:11;;;;;;;4.85;3.80;;;24.00;99.90;;;;;;5013825;28;20247;-66
2022/07/05 06:42:37;;;;;;;3.80;3.50;;;24.00;99.90;;;;;;5027266;28;20180;-65
2022/07/05 06:45:05;;;;;;;6.13;4.28;;;24.30;99.90;;;;;;5033053;28;20198;-65
2022/07/05 06:47:31;;;;;;;4.05;3.67;;;24.50;99.90;;;;;;5043764;28;20183;-65
2022/07/05 06:49:58;;;;;;;4.32;3.92;;;24.70;99.90;;;;;;5053054;28;20182;-66
2022/07/05 06:52:24;;;;;;;4.50;4.10;;;24.70;99.90;;;;;;5051643;28;20190;-65
2022/07/05 06:54:49;;;;;;;4.38;3.33;;;24.80;99.90;;;;;;5052723;28;20175;-64
2022/07/05 06:57:22;;;;;;;5.35;3.90;;;24.90;99.90;;;;;;5044320;28;20245;-65
2022/07/05 06:59:48;;;;;;;4.03;3.67;;;25.10;99.90;;;;;;5032846;28;20282;-66
2022/07/05 07:02:14;;;;;;;5.10;4.10;;;25.10;99.90;;;;;;5034275;28;20535;-65
2022/07/05 07:04:40;;;;;;;3.63;3.33;;;25.10;99.90;;;;;;5032661;28;20167;-65
2022/07/05 07:09:17;;;;;;;5.07;3.65;;;25.20;99.90;;;;;;5033859;28;20549;-65
2022/07/05 07:09:58;;;;;;;4.55;4.18;;;25.60;99.90;;;;;;5031356;28;20571;-66
2022/07/05 07:12:24;;;;;;;5.15;3.97;;;25.70;99.90;;;;;;5034126;28;20245;-66
2022/07/05 07:14:49;;;;;;;3.90;3.67;;;25.70;99.90;;;;;;5032487;28;20171;-65
2022/07/05 07:17:15;;;;;;;4.20;3.55;;;25.70;99.90;;;;;;5040665;28;20210;-66
2022/07/05 07:19:40;;;;;;;3.90;3.60;;;25.80;99.90;;;;;;5050894;28;20753;-65
2022/07/05 07:22:06;;;;;;;5.95;5.10;;;25.80;99.90;;;;;;5032844;28;20175;-66
2022/07/05 07:24:31;;;;;;;7.15;4.03;;;25.90;99.90;;;;;;5032517;28;20172;-66
2022/07/05 07:27:03;;;;;;;4.40;3.60;;;25.90;99.90;;;;;;5051510;28;20175;-66
2022/07/05 07:29:29;;;;;;;4.32;3.92;;;26.20;99.90;;;;;;5035810;28;20215;-65
2022/07/05 07:31:56;;;;;;;3.65;3.30;;;26.40;99.90;;;;;;5030311;28;20194;-66
2022/07/05 07:34:22;;;;;;;4.30;3.90;;;26.40;99.90;;;;;;5046822;28;20644;-65
2022/07/05 07:36:48;;;;;;;4.93;3.75;;;26.50;99.90;;;;;;5052083;28;20396;-66
2022/07/05 07:39:14;;;;;;;4.22;3.75;;;26.70;99.90;;;;;;5038664;28;20245;-64
2022/07/05 07:41:40;;;;;;;6.63;3.78;;;26.90;99.90;;;;;;5032392;28;20175;-66
2022/07/05 07:44:06;;;;;;;4.18;3.65;;;26.90;99.90;;;;;;5043302;28;20174;-66
2022/07/05 07:46:32;;;;;;;9.43;4.65;;;27.40;99.90;;;;;;5052254;28;20554;-65
2022/07/05 07:48:58;;;;;;;4.38;3.97;;;27.70;99.90;;;;;;5041745;28;20199;-66
2022/07/05 07:51:23;;;;;;;5.60;3.85;;;27.70;99.90;;;;;;5032102;28;20241;-65
2022/07/05 07:53:49;;;;;;;6.85;4.30;;;27.80;99.90;;;;;;5039543;28;20718;-65
2022/07/05 07:56:16;;;;;;;5.53;4.43;;;27.80;99.90;;;;;;5050304;28;20198;-66
2022/07/05 07:58:41;;;;;;;4.60;3.83;;;28.00;99.90;;;;;;5051680;28;20616;-65
2022/07/05 08:01:10;;;;;;;5.20;3.90;;;28.00;99.90;;;;;;5047785;28;20266;-65
2022/07/05 08:03:37;;;;;;;4.90;3.88;;;28.20;99.90;;;;;;5013957;28;20170;-66
2022/07/05 08:06:02;;;;;;;5.43;4.93;;;28.40;99.90;;;;;;5047341;28;20183;-65
2022/07/05 08:08:28;;;;;;;4.90;4.40;;;28.50;99.90;;;;;;5050381;28;20195;-66
2022/07/05 08:10:54;;;;;;;5.00;3.70;;;28.20;99.90;;;;;;5050583;28;20217;-66
2022/07/05 08:13:19;;;;;;;4.55;3.78;;;28.00;99.90;;;;;;5031805;28;20167;-66
2022/07/05 08:15:45;;;;;;;6.25;3.70;;;28.30;99.90;;;;;;5031258;28;20198;-66
2022/07/05 08:23:39;;;;;;;4.32;3.50;;;28.20;99.90;;;;;;5046828;28;20387;-65
2022/07/05 08:26:04;;;;;;;3.40;3.10;;;28.50;99.90;;;;;;5050558;28;20205;-65
2022/07/05 08:28:30;;;;;;;3.88;3.40;;;28.80;99.90;;;;;;5031490;28;20211;-66
2022/07/05 08:30:56;;;;;;;7.28;3.10;;;28.60;99.90;;;;;;5031474;28;20551;-65
2022/07/05 08:33:21;;;;;;;3.65;3.35;;;28.60;99.90;;;;;;5049968;28;20182;-67
2022/07/05 08:35:47;;;;;;;4.28;3.97;;;28.60;99.90;;;;;;5051151;28;20183;-66
2022/07/05 08:38:13;;;;;;;3.88;3.30;;;28.30;99.90;;;;;;5048087;28;20214;-65
2022/07/05 08:40:43;;;;;;;4.18;3.72;;;28.00;99.90;;;;;;5051508;28;20174;-66
2022/07/05 08:43:10;;;;;;;3.75;3.45;;;27.90;99.90;;;;;;5050507;28;20167;-66
2022/07/05 08:45:38;;;;;;;5.65;3.80;;;28.00;99.90;;;;;;5047783;28;20172;-66
2022/07/05 08:48:05;;;;;;;4.00;3.40;;;28.10;99.90;;;;;;5045752;28;20230;-66
2022/07/05 08:50:33;;;;;;;3.90;3.60;;;28.20;99.90;;;;;;5035049;28;20187;-66
2022/07/05 08:52:59;;;;;;;4.00;3.60;;;28.40;99.90;;;;;;5044629;28;20214;-65
2022/07/05 08:55:26;;;;;;;3.92;3.63;;;28.70;99.90;;;;;;5050950;28;20186;-65
2022/07/05 08:57:52;;;;;;;3.92;3.50;;;28.90;99.90;;;;;;5037551;28;20222;-65
2022/07/05 09:00:18;;;;;;;3.33;3.10;;;29.00;99.90;;;;;;5031309;28;20167;-66
2022/07/05 09:02:43;;;;;;;3.67;3.30;;;29.00;99.90;;;;;;5032320;28;20182;-65
2022/07/05 09:05:12;;;;;;;4.15;3.35;;;29.00;99.90;;;;;;5030992;28;20179;-65
2022/07/05 09:07:44;;;;;;;4.03;3.50;;;29.10;99.90;;;;;;5032411;28;20195;-66
2022/07/05 09:10:11;;;;;;;6.72;3.40;;;29.40;99.90;;;;;;5043843;28;20211;-66
2022/07/05 09:12:38;;;;;;;9.25;4.03;;;29.60;99.90;;;;;;5054370;28;20261;-65
2022/07/05 09:15:05;;;;;;;3.67;3.38;;;29.60;99.90;;;;;;5054668;28;20248;-65
2022/07/05 09:17:31;;;;;;;3.35;3.10;;;29.20;99.90;;;;;;5036565;28;20629;-65
2022/07/05 09:20:11;;;;;;;3.50;3.20;;;29.10;99.90;;;;;;5034677;28;20174;-65
2022/07/05 09:22:52;;;;;;;4.13;3.53;;;29.20;99.90;;;;;;5052878;28;20178;-66
2022/07/05 09:25:24;;;;;;;4.05;3.13;;;29.70;99.90;;;;;;5054424;28;20523;-65
2022/07/05 09:27:54;;;;;;;5.38;3.33;;;30.40;99.90;;;;;;5034726;28;20776;-65
2022/07/05 09:30:41;;;;;;;5.10;3.67;;;30.20;99.90;;;;;;5034783;28;20203;-66
2022/07/05 09:33:14;;;;;;;3.13;2.90;;;30.50;99.90;;;;;;5015002;28;20262;-65
2022/07/05 09:35:59;;;;;;;3.17;2.90;;;30.70;99.70;;;;;;5015530;28;20227;-66
2022/07/05 09:38:25;;;;;;;3.67;3.33;;;30.80;99.90;;;;;;5054386;28;20214;-66
2022/07/05 09:41:00;;;;;;;4.03;3.40;;;30.70;98.00;;;;;;5051657;28;20236;-67
2022/07/05 09:43:27;;;;;;;2.83;2.63;;;30.60;99.40;;;;;;5014508;28;20172;-66
2022/07/05 09:45:58;;;;;;;4.82;3.75;;;30.30;99.10;;;;;;5016734;28;20202;-65
2022/07/05 09:48:24;;;;;;;3.67;3.38;;;30.00;99.10;;;;;;5054317;28;20195;-65
2022/07/05 09:50:53;;;;;;;3.85;3.13;;;29.80;99.90;;;;;;5053999;28;20181;-66
2022/07/05 09:53:19;;;;;;;3.58;3.10;;;29.80;98.90;;;;;;5034163;28;20258;-67
2022/07/05 09:56:03;;;;;;;3.47;3.28;;;29.70;98.00;;;;;;5034205;28;20213;-66
2022/07/05 09:58:29;;;;;;;3.25;2.90;;;28.80;97.90;;;;;;5033519;28;20207;-66
2022/07/05 10:00:55;;;;;;;4.03;3.35;;;28.60;99.80;;;;;;5033967;28;20170;-66
2022/07/05 10:03:21;;;;;;;3.45;3.15;;;28.30;97.80;;;;;;5053431;28;20553;-67
2022/07/05 10:05:46;;;;;;;5.93;3.50;;;28.20;99.60;;;;;;5054060;28;20236;-65
2022/07/05 10:08:13;;;;;;;3.10;2.90;;;28.40;99.90;;;;;;5035739;28;20254;-66
2022/07/05 10:10:41;;;;;;;3.55;3.25;;;28.30;99.90;;;;;;5034367;28;20217;-65
2022/07/05 10:13:07;;;;;;;3.67;3.38;;;27.90;99.80;;;;;;5040810;28;20191;-65
2022/07/05 10:15:34;;;;;;;4.25;3.88;;;27.70;99.90;;;;;;5032325;28;20187;-64
2022/07/05 10:18:10;;;;;;;3.92;3.20;;;27.50;98.90;;;;;;5033507;28;20210;-66
2022/07/05 10:20:45;;;;;;;3.83;3.10;;;27.30;99.50;;;;;;5043393;28;20178;-66
2022/07/05 10:23:15;;;;;;;3.25;3.05;;;27.20;99.90;;;;;;5053815;28;20174;-65
2022/07/05 10:25:48;;;;;;;3.80;3.60;;;26.90;99.90;;;;;;5042402;28;20665;-65
2022/07/05 10:28:15;;;;;;;3.50;3.30;;;26.70;99.90;;;;;;5034212;28;20207;-66
2022/07/05 10:30:42;;;;;;;6.55;3.60;;;26.70;99.90;;;;;;5043821;28;20773;-65
2022/07/05 10:33:08;;;;;;;3.67;3.38;;;26.80;99.90;;;;;;5053657;28;20170;-67
2022/07/05 10:35:34;;;;;;;3.47;3.28;;;27.10;99.90;;;;;;5048099;28;20183;-66
2022/07/05 10:38:01;;;;;;;3.83;3.42;;;27.50;99.90;;;;;;5020956;28;20229;-68
2022/07/05 10:40:30;;;;;;;3.92;3.53;;;27.90;99.90;;;;;;5019768;28;20172;-66
2022/07/05 10:42:58;;;;;;;3.40;3.10;;;28.10;99.20;;;;;;5033534;28;20245;-66
2022/07/05 10:45:26;;;;;;;5.97;3.50;;;28.00;99.80;;;;;;5038562;28;20178;-67
2022/07/05 10:48:16;;;;;;;9.23;3.45;;;27.80;99.80;;;;;;5035330;28;20199;-64
2022/07/05 10:51:00;;;;;;;3.60;3.30;;;27.60;99.90;;;;;;5045155;28;20176;-66
2022/07/05 10:53:55;;;;;;;3.60;3.30;;;27.30;99.90;;;;;;5033959;28;20182;-64
2022/07/05 10:56:21;;;;;;;4.07;3.67;;;27.10;99.90;;;;;;5006512;28;20567;-65
2022/07/05 10:58:47;;;;;;;4.32;3.25;;;27.40;99.90;;;;;;5033181;28;20191;-67
2022/07/05 11:01:19;;;;;;;3.67;3.35;;;27.90;99.90;;;;;;5033176;28;20715;-64
2022/07/05 11:03:55;;;;;;;3.15;2.95;;;28.40;99.90;;;;;;5032264;28;20171;-66
2022/07/05 11:06:22;;;;;;;3.20;3.00;;;29.10;99.90;;;;;;5033176;28;20297;-67
2022/07/05 11:08:59;;;;;;;4.15;3.78;;;29.30;99.90;;;;;;5032996;28;20242;-66
2022/07/05 11:11:39;;;;;;;3.35;2.88;;;29.10;97.70;;;;;;5032985;28;20179;-66
2022/07/05 11:14:25;;;;;;;3.47;3.20;;;28.30;99.00;;;;;;5032623;28;20176;-65
2022/07/05 11:17:13;;;;;;;3.80;3.28;;;27.80;99.40;;;;;;5032820;28;20199;-66
2022/07/05 11:20:04;;;;;;;3.10;2.90;;;27.30;97.70;;;;;;5032752;28;21029;-66
2022/07/05 11:22:30;;;;;;;3.15;2.95;;;27.50;96.60;;;;;;5032815;28;20176;-65
2022/07/05 11:24:56;;;;;;;3.53;3.30;;;27.40;96.20;;;;;;5032329;28;20206;-67
2022/07/05 11:27:22;;;;;;;4.10;3.47;;;27.40;99.50;;;;;;5032678;28;20710;-67
2022/07/05 11:29:52;;;;;;;4.35;3.33;;;27.60;97.40;;;;;;5032443;28;20241;-67
2022/07/05 11:32:30;;;;;;;3.22;3.03;;;27.90;97.50;;;;;;5032185;28;20164;-66
2022/07/05 11:35:17;;;;;;;2.83;2.63;;;28.20;97.10;;;;;;5032186;28;20179;-67
2022/07/05 11:38:03;;;;;;;2.92;2.83;;;28.70;99.30;;;;;;5032386;28;20191;-67
2022/07/05 11:40:31;;;;;;;3.25;2.47;;;29.40;97.20;;;;;;5032568;28;20534;-67
2022/07/05 11:42:58;;;;;;;3.00;2.80;;;29.50;93.90;;;;;;5032374;28;20171;-66
2022/07/05 11:45:24;;;;;;;3.63;3.42;;;28.60;93.00;;;;;;5032100;28;20168;-67
2022/07/05 11:47:56;;;;;;;2.95;2.75;;;27.80;95.80;;;;;;5032220;28;21936;-67
2022/07/05 11:50:27;;;;;;;4.32;3.60;;;27.70;95.30;;;;;;5032420;28;20680;-67
2022/07/05 11:52:53;;;;;;;3.22;3.03;;;27.70;94.70;;;;;;5032434;28;20168;-67
2022/07/05 11:55:19;;;;;;;3.03;2.83;;;28.10;93.90;;;;;;5032001;28;20168;-66
2022/07/05 11:57:52;;;;;;;3.08;2.88;;;27.90;94.30;;;;;;5032243;28;20217;-66
2022/07/05 12:00:29;;;;;;;3.13;2.80;;;28.30;95.70;;;;;;5032204;28;20177;-67
2022/07/05 12:02:54;;;;;;;3.03;2.83;;;28.80;94.70;;;;;;5032028;28;20186;-67
2022/07/05 12:05:20;;;;;;;3.38;3.17;;;29.30;94.50;;;;;;5031224;28;20641;-66
2022/07/05 12:07:50;;;;;;;3.38;3.17;;;29.50;93.00;;;;;;5031845;28;20175;-66
2022/07/05 12:13:08;;;;;;;2.78;2.58;;;29.60;92.80;;;;;;5032153;28;20191;-65
2022/07/05 12:15:35;;;;;;;3.22;3.00;;;29.80;92.60;;;;;;5031563;28;20171;-67
2022/07/05 12:18:03;;;;;;;3.50;3.20;;;29.80;93.70;;;;;;5031597;28;20234;-66
2022/07/05 12:20:30;;;;;;;2.90;2.70;;;29.30;94.70;;;;;;5031899;28;20168;-66
2022/07/05 12:22:56;;;;;;;3.83;3.45;;;29.10;96.30;;;;;;5031916;28;20171;-67
2022/07/05 12:25:23;;;;;;;3.92;3.42;;;29.00;94.50;;;;;;5031482;28;20171;-67
2022/07/05 12:27:51;;;;;;;5.38;3.60;;;28.30;94.50;;;;;;5031439;28;20235;-66
2022/07/05 12:30:18;;;;;;;3.50;3.30;;;27.60;94.70;;;;;;5031732;28;20179;-66
2022/07/05 12:33:05;;;;;;;3.30;3.00;;;27.30;97.50;;;;;;5031629;28;20191;-67
2022/07/05 12:35:40;;;;;;;3.58;3.20;;;26.90;97.30;;;;;;5031387;28;20167;-66
2022/07/05 12:38:15;;;;;;;3.33;3.08;;;27.20;97.20;;;;;;5031338;28;20218;-67
2022/07/05 12:40:41;;;;;;;3.50;3.20;;;27.50;96.50;;;;;;5031663;28;20167;-66
2022/07/05 12:43:12;;;;;;;5.40;3.78;;;27.80;96.60;;;;;;5031713;28;20786;-67
2022/07/05 12:45:39;;;;;;;3.47;3.25;;;28.30;96.00;;;;;;5030478;28;20189;-66
2022/07/05 12:48:07;;;;;;;3.15;2.85;;;28.60;95.70;;;;;;5031422;28;20621;-67
2022/07/05 12:50:50;;;;;;;4.22;3.33;;;29.00;97.00;;;;;;5031487;28;20516;-66
2022/07/05 12:58:57;;;;;;;3.67;2.88;;;27.90;96.00;;;;;;5031588;28;20226;-67
2022/07/05 13:01:36;;;;;;;3.50;3.20;;;27.60;96.30;;;;;;5031408;28;20164;-66
2022/07/05 13:04:11;;;;;;;4.07;3.67;;;27.40;96.60;;;;;;5031168;28;20249;-65
2022/07/05 13:07:00;;;;;;;3.13;2.92;;;27.50;99.90;;;;;;5031324;28;20182;-66